OJAM/ADJ METAR and TAF weather

Enter ICAO airport designator
Station Type Date Time Source
OJAM METAR 2019/08/23 15:00 UTC NOAA

OJAM 231500Z 34009KT 6000 NSC 34/12 Q1011 NOSIG


Station Type Date Time Source
OJAM Decoded METAR 2019/08/23 15:00 UTC NOAA

Station name not available
Aug 23, 2019 - 11:00 AM EDT / 2019.08.23 1500 UTC
Wind: from the NNW (340 degrees) at 10 MPH (9 KT):0
Visibility: 3 mile(s):0
Temperature: 93 F (34 C)
Dew Point: 53 F (12 C)
Relative Humidity: 26%
Pressure (altimeter): 29.85 in. Hg (1011 hPa)
ob: OJAM 231500Z 34009KT 6000 NSC 34/12 Q1011 NOSIG
cycle: 15

Station Type Date Time Source
OJAM TAF 2019/08/23 12:15 UTC NOAA

TAF OJAM 231044Z 2312/2418 29006KT 6000 NSC
BECMG 2401/2403 VRB02KT
TEMPO 2410/2418 31014KT

Example: see airport list